Toronto, Ontario

12:44 AM EST en Enero 27, 2015 (GMT -0500)
Toronto-City Centre | Change Station
CLOSE
Current Station
Aeropuerto
Location: Toronto,
Altura: 253 ft
Estaciones meteorológicas cercanas

Alt 253 ft 43.63 °N, 79.40 °W | Updated 44 minutes ago

Light Snow
Débil nevada
16 ° F
Sensación térmica 3 ° F
N
12
Viento Variable Viento desde NE

Hoy se prevé una temperatura muy similar a la de ayer.

Hoy
Alta -- | Baja -- ° F
--% Posibilidad de precipitaciones
Ayer
Alta -- | Baja -- ° F
Precip. -- pul
7:39 AM 5:21 PM
Creciente, 50% visible
Presión 30.03 pul
Visibilidad 9.0 Millas
Nubes Nublado 6500 ft
Vientos helados 3 ° F
Punto de rocío 5 ° F
Humedad 62%
Precipitaciones 0.00 pul
Espesor de la nieve No disponible.
UV 0 de una escala de 12
Polen No disponible.
Calidad del aire No disponible.
Flu Activity No disponible.
METAR CYTZ 270500Z AUTO 04010KT 350V090 9SM -SN OVC065 M09/M15 A3001 RMK SLP169

More Conditions Fewer Conditions

Presión 30.03 pul
Visibilidad 9.0 Millas
Nubes Nublado 6500 ft
Vientos helados 3 ° F
Punto de rocío 5 ° F
Humedad 62%
Precipitaciones 0.00 pul
Espesor de la nieve No disponible.
UV 0 de una escala de 12
Polen No disponible.
Calidad del aire No disponible.
Flu Activity No disponible.
METAR CYTZ 270500Z AUTO 04010KT 350V090 9SM -SN OVC065 M09/M15 A3001 RMK SLP169

More Conditions Fewer Conditions

10-Day Weather Forecast

Almanac

Astronomía

Jan. 27, 2015 Salida Puesta
Hora real
Crepúsculo civil
Crepúsculo náutico
Crepúsculo astronómico
Luna
Horas de luz
Horas de luz
Tomorrow will be .
, % of the Moon is Illuminated

Extremos de hoy

Máximos del país Bajas del país

Community

WunderPhotos

Upload Photos

1,790,536 ¡fotos cargadas!

WunderBlogs® & News

Nearby

Calidad del aire

  Calidad del aire Índice AQ Contaminante
Not available.

Grosos de nieve

Estación Profundido Altura

Actividad de terremotos

Ciudad Distance Mag. Tiempo y dato
Magnitud mínima muestra es 2,5.

Temperaturas de aguas costeras

Lugar Temperatura

Estaciones meteorológicas cercanas